Time;durP1;ratioP1;P1;durP2;ratioP2;P2;SDS_P1;SDS_P2;PMS_P1;PMS_P2;Temp;Humidity;BMP_temperature;BMP_pressure;BME280_temperature;BME280_humidity;BME280_pressure;Samples;Min_cycle;Max_cycle;Signal;HPM_P1;HPM_P2
2022/05/09 00:00:36;;;;;;;7.80;7.00;;;14.70;99.90;;;;;;10353009;28;20221;-70
2022/05/09 00:05:36;;;;;;;8.83;6.77;;;14.70;99.90;;;;;;10337559;28;20229;-71
2022/05/09 00:10:37;;;;;;;9.23;7.23;;;14.70;99.90;;;;;;10370482;28;20834;-70
2022/05/09 00:15:37;;;;;;;8.83;7.33;;;14.60;99.90;;;;;;10359700;28;20237;-71
2022/05/09 00:20:38;;;;;;;9.27;7.20;;;14.60;99.90;;;;;;10354381;28;20304;-71
2022/05/09 00:25:39;;;;;;;8.47;6.73;;;14.50;99.90;;;;;;10376176;28;20868;-70
2022/05/09 00:30:40;;;;;;;12.77;6.27;;;14.50;99.90;;;;;;10374094;28;20225;-72
2022/05/09 00:35:44;;;;;;;9.70;6.87;;;14.50;99.90;;;;;;10358169;28;20224;-72
2022/05/09 00:41:28;;;;;;;9.07;6.73;;;14.50;99.90;;;;;;10365534;28;20340;-72
2022/05/09 00:46:05;;;;;;;9.70;6.43;;;14.40;99.90;;;;;;10371677;28;20252;-71
2022/05/09 00:51:08;;;;;;;7.63;6.20;;;14.30;99.90;;;;;;10370184;28;20217;-72
2022/05/09 00:56:24;;;;;;;9.87;6.30;;;14.20;99.90;;;;;;10368450;28;20240;-72
2022/05/09 01:01:25;;;;;;;7.03;6.10;;;14.20;99.90;;;;;;10348958;28;20267;-71
2022/05/09 01:06:26;;;;;;;10.33;6.00;;;14.10;99.90;;;;;;10357459;28;20642;-72
2022/05/09 01:11:28;;;;;;;8.37;6.27;;;14.10;99.90;;;;;;10362566;28;20229;-72
2022/05/09 01:16:29;;;;;;;7.30;5.93;;;14.00;99.90;;;;;;10363203;28;20238;-71
2022/05/09 01:21:34;;;;;;;8.60;6.73;;;14.00;99.90;;;;;;10359062;28;20213;-72
2022/05/09 01:26:34;;;;;;;7.67;5.90;;;13.90;99.90;;;;;;10368998;28;20229;-72
2022/05/09 01:31:36;;;;;;;7.47;5.80;;;13.80;99.90;;;;;;10358639;28;20639;-72
2022/05/09 01:36:38;;;;;;;6.83;5.67;;;13.70;99.90;;;;;;10356274;28;20592;-71
2022/05/09 01:41:41;;;;;;;9.27;6.07;;;13.60;99.90;;;;;;10359675;28;20240;-73
2022/05/09 01:52:06;;;;;;;7.27;5.57;;;13.50;99.90;;;;;;10353135;28;20225;-72
2022/05/09 01:57:07;;;;;;;9.03;5.10;;;13.50;99.90;;;;;;10363205;28;20233;-72
2022/05/09 02:02:15;;;;;;;9.63;6.20;;;13.40;99.90;;;;;;10348096;28;20240;-72
2022/05/09 02:07:19;;;;;;;7.43;6.00;;;13.30;99.90;;;;;;10345174;28;20234;-72
2022/05/09 02:12:20;;;;;;;8.10;5.70;;;13.30;99.90;;;;;;10345170;28;20225;-72
2022/05/09 02:17:20;;;;;;;9.90;6.60;;;13.30;99.90;;;;;;10370309;28;20309;-72
2022/05/09 02:22:21;;;;;;;8.97;5.77;;;13.30;99.90;;;;;;10360007;28;20799;-71
2022/05/09 02:27:23;;;;;;;7.80;5.93;;;13.30;99.90;;;;;;10349364;28;20217;-72
2022/05/09 02:32:23;;;;;;;9.23;6.33;;;13.30;99.90;;;;;;10353144;28;20228;-72
2022/05/09 02:37:24;;;;;;;9.47;6.23;;;13.30;99.90;;;;;;10369785;28;20227;-70
2022/05/09 02:42:24;;;;;;;7.87;6.03;;;13.20;99.90;;;;;;10355487;28;20288;-71
2022/05/09 02:47:26;;;;;;;8.97;5.97;;;13.10;99.90;;;;;;10371786;28;20231;-70
2022/05/09 02:52:27;;;;;;;8.50;6.37;;;13.10;99.90;;;;;;10350240;28;20649;-72
2022/05/09 02:57:30;;;;;;;9.50;6.30;;;13.00;99.90;;;;;;10347750;28;20233;-72
2022/05/09 03:02:31;;;;;;;8.73;6.27;;;13.00;99.90;;;;;;10358909;28;20300;-73
2022/05/09 03:07:31;;;;;;;12.00;6.97;;;13.00;99.90;;;;;;10356817;28;20313;-72
2022/05/09 03:12:32;;;;;;;12.67;7.23;;;12.90;99.90;;;;;;10369834;28;20703;-72
2022/05/09 03:17:32;;;;;;;9.40;6.97;;;12.90;99.90;;;;;;10356185;28;20832;-71
2022/05/09 03:22:33;;;;;;;7.63;5.77;;;12.90;99.90;;;;;;10339168;28;20222;-71
2022/05/09 03:27:34;;;;;;;6.63;5.93;;;12.70;99.90;;;;;;10351340;28;20239;-73
2022/05/09 03:32:35;;;;;;;9.27;5.87;;;12.70;99.90;;;;;;10356317;28;22092;-71
2022/05/09 03:37:36;;;;;;;7.87;5.60;;;12.60;99.90;;;;;;10368447;28;20787;-74
2022/05/09 03:42:37;;;;;;;6.47;5.60;;;12.50;99.90;;;;;;10330677;28;20229;-72
2022/05/09 03:47:38;;;;;;;7.50;5.73;;;12.40;99.90;;;;;;10354088;28;20676;-71
2022/05/09 03:52:38;;;;;;;7.37;5.40;;;12.40;99.90;;;;;;10357888;28;20595;-71
2022/05/09 03:57:56;;;;;;;6.53;5.00;;;12.30;99.90;;;;;;10360802;28;20219;-71
2022/05/09 04:02:57;;;;;;;8.30;5.30;;;12.30;99.90;;;;;;10354211;28;20701;-72
2022/05/09 04:08:00;;;;;;;10.13;5.53;;;12.30;99.90;;;;;;10355067;28;20227;-70
2022/05/09 04:13:01;;;;;;;8.20;5.77;;;12.40;99.90;;;;;;10335734;28;20237;-70
2022/05/09 04:18:03;;;;;;;6.70;5.47;;;12.50;99.90;;;;;;10361062;28;20224;-71
2022/05/09 04:23:06;;;;;;;7.10;5.03;;;12.60;99.90;;;;;;10336828;28;20249;-71
2022/05/09 04:28:07;;;;;;;6.83;5.27;;;12.70;99.90;;;;;;10365474;28;20213;-71
2022/05/09 04:33:08;;;;;;;12.43;5.53;;;12.70;99.90;;;;;;10338897;28;20239;-71
2022/05/09 04:38:23;;;;;;;9.47;5.50;;;12.90;99.90;;;;;;10355235;28;20216;-71
2022/05/09 04:43:28;;;;;;;8.37;6.00;;;13.00;99.90;;;;;;10353034;28;20367;-72
2022/05/09 04:48:28;;;;;;;7.43;5.00;;;13.10;99.90;;;;;;10342143;28;20221;-70
2022/05/09 04:53:29;;;;;;;10.80;5.20;;;13.20;99.90;;;;;;10351175;28;20229;-72
2022/05/09 04:58:30;;;;;;;8.30;5.43;;;13.40;99.90;;;;;;10366066;28;20224;-72
2022/05/09 05:03:30;;;;;;;10.70;5.30;;;13.50;99.90;;;;;;10357749;28;20275;-72
2022/05/09 05:08:33;;;;;;;7.10;5.30;;;13.60;99.90;;;;;;10358086;28;20221;-72
2022/05/09 05:13:36;;;;;;;10.63;5.17;;;13.80;99.90;;;;;;10366886;28;20249;-71
2022/05/09 05:18:36;;;;;;;8.90;4.87;;;14.00;99.90;;;;;;10357058;28;20230;-72
2022/05/09 05:23:38;;;;;;;10.10;5.20;;;14.10;99.90;;;;;;10378663;28;20364;-72
2022/05/09 05:28:41;;;;;;;9.73;4.57;;;14.30;99.90;;;;;;10372468;28;20271;-72
2022/05/09 05:33:44;;;;;;;9.97;4.90;;;14.40;99.90;;;;;;10371514;28;20229;-72
2022/05/09 05:38:47;;;;;;;12.67;5.50;;;14.50;99.90;;;;;;10373685;28;20213;-72
2022/05/09 05:43:48;;;;;;;12.90;5.90;;;14.90;99.90;;;;;;10352409;28;20231;-71
2022/05/09 05:48:49;;;;;;;10.60;5.73;;;15.50;99.90;;;;;;10362565;28;20235;-72
2022/05/09 05:53:49;;;;;;;12.93;5.63;;;15.20;99.90;;;;;;10373731;28;20228;-74
2022/05/09 05:58:50;;;;;;;13.07;5.27;;;16.10;99.90;;;;;;10348690;28;20217;-70
2022/05/09 06:03:51;;;;;;;14.90;4.63;;;17.40;99.90;;;;;;10356899;28;20221;-70
2022/05/09 06:08:52;;;;;;;11.37;4.70;;;19.20;99.90;;;;;;10348177;28;20296;-72
2022/05/09 06:13:53;;;;;;;8.27;3.93;;;20.30;99.90;;;;;;10360162;28;20299;-71
2022/05/09 06:18:53;;;;;;;7.90;4.30;;;21.40;99.30;;;;;;10355902;28;20352;-72
2022/05/09 06:23:54;;;;;;;7.83;3.63;;;22.40;95.20;;;;;;10354441;28;20228;-71
2022/05/09 06:28:54;;;;;;;9.60;3.63;;;22.60;91.10;;;;;;10355151;28;20302;-71
2022/05/09 06:33:55;;;;;;;7.90;3.50;;;22.90;89.60;;;;;;10349126;28;20323;-70
2022/05/09 06:38:57;;;;;;;6.77;3.17;;;23.60;84.10;;;;;;10353571;28;20221;-72
2022/05/09 06:43:57;;;;;;;6.57;3.47;;;23.60;80.50;;;;;;10331293;28;20305;-71
2022/05/09 06:48:58;;;;;;;12.70;3.47;;;24.30;77.60;;;;;;10352902;28;20828;-71
2022/05/09 06:53:58;;;;;;;5.63;3.00;;;24.70;72.30;;;;;;10338672;28;20320;-71
2022/05/09 06:58:59;;;;;;;6.53;3.30;;;25.00;68.80;;;;;;10353347;28;20645;-71
2022/05/09 07:04:00;;;;;;;6.57;3.00;;;25.50;65.20;;;;;;10350318;28;20637;-72
2022/05/09 07:09:05;;;;;;;7.57;2.87;;;25.20;64.10;;;;;;10347782;28;20300;-72
2022/05/09 07:14:06;;;;;;;8.67;3.00;;;25.80;63.10;;;;;;10344195;28;20652;-72
2022/05/09 07:19:06;;;;;;;6.80;3.03;;;26.60;59.50;;;;;;10352538;28;20266;-71
2022/05/09 07:24:07;;;;;;;5.27;3.00;;;27.30;56.90;;;;;;10341461;28;20301;-71
2022/05/09 07:29:09;;;;;;;3.93;2.77;;;27.00;56.40;;;;;;10349599;28;20304;-73
2022/05/09 07:34:09;;;;;;;6.00;3.50;;;26.70;54.60;;;;;;10356870;28;20225;-71
2022/05/09 07:39:10;;;;;;;5.07;2.83;;;27.40;53.60;;;;;;10348349;28;20589;-73
2022/05/09 07:44:10;;;;;;;5.03;2.90;;;28.40;52.50;;;;;;10350619;28;20595;-72
2022/05/09 07:49:12;;;;;;;5.33;3.10;;;28.80;50.60;;;;;;10348476;28;20768;-72
2022/05/09 07:54:12;;;;;;;5.67;3.33;;;28.40;50.40;;;;;;10330998;28;20607;-71
2022/05/09 07:59:13;;;;;;;4.63;2.63;;;29.00;49.80;;;;;;10359936;28;20219;-71
2022/05/09 08:04:14;;;;;;;6.07;3.47;;;29.30;49.40;;;;;;10350050;28;20225;-72
2022/05/09 08:09:15;;;;;;;6.77;3.50;;;29.50;47.90;;;;;;10348141;28;20218;-72
2022/05/09 08:14:16;;;;;;;7.00;3.60;;;29.40;49.60;;;;;;10343534;28;20246;-72
2022/05/09 08:19:17;;;;;;;6.80;3.50;;;29.10;49.50;;;;;;10335336;28;20292;-72
2022/05/09 08:24:22;;;;;;;5.30;3.50;;;29.10;49.00;;;;;;10347959;28;20227;-72
2022/05/09 08:29:23;;;;;;;6.70;3.77;;;31.10;45.90;;;;;;10352409;28;20217;-71
2022/05/09 08:34:23;;;;;;;6.57;4.00;;;29.60;47.50;;;;;;10343753;28;20226;-71
2022/05/09 08:39:26;;;;;;;6.23;3.50;;;29.20;47.90;;;;;;10356374;28;20224;-72
2022/05/09 08:44:47;;;;;;;5.40;3.67;;;31.20;45.80;;;;;;10353196;28;20221;-72
2022/05/09 08:50:17;;;;;;;6.90;3.80;;;30.90;44.90;;;;;;10349552;28;20209;-72
2022/05/09 08:55:25;;;;;;;5.57;4.00;;;31.00;44.80;;;;;;10348383;28;20687;-71
2022/05/09 09:00:29;;;;;;;7.23;3.70;;;31.20;45.00;;;;;;10340889;28;20219;-72
2022/05/09 09:05:34;;;;;;;6.27;3.77;;;31.90;44.40;;;;;;10358327;28;20228;-71
2022/05/09 09:10:43;;;;;;;5.63;3.27;;;32.90;41.50;;;;;;10357610;28;20267;-71
2022/05/09 09:15:58;;;;;;;7.33;3.70;;;32.80;42.70;;;;;;10348347;28;20217;-71
2022/05/09 09:21:20;;;;;;;5.70;4.90;;;31.80;43.00;;;;;;10351854;28;20222;-73
2022/05/09 09:27:01;;;;;;;8.93;3.80;;;33.90;40.90;;;;;;10338696;28;20228;-72
2022/05/09 09:32:11;;;;;;;8.10;3.47;;;33.90;40.00;;;;;;10357083;28;20313;-72
2022/05/09 09:37:19;;;;;;;10.07;3.57;;;35.00;39.30;;;;;;10353791;28;20261;-71
2022/05/09 09:42:20;;;;;;;4.47;3.13;;;35.80;36.10;;;;;;10353237;28;20968;-72
2022/05/09 09:47:24;;;;;;;4.90;3.10;;;36.70;34.70;;;;;;10342826;28;20305;-74
2022/05/09 09:52:31;;;;;;;4.07;3.03;;;35.90;36.00;;;;;;10354677;28;20222;-73
2022/05/09 09:57:37;;;;;;;6.07;3.20;;;34.80;36.00;;;;;;10353941;28;20273;-73
2022/05/09 10:02:39;;;;;;;5.50;3.27;;;36.90;34.30;;;;;;10355102;28;20219;-72
2022/05/09 10:07:43;;;;;;;4.77;3.03;;;36.80;34.90;;;;;;10357653;28;20634;-71
2022/05/09 10:12:53;;;;;;;4.70;3.07;;;36.80;33.80;;;;;;10337265;28;20305;-72
2022/05/09 10:17:55;;;;;;;5.17;2.97;;;38.90;31.90;;;;;;10354677;28;20302;-72
2022/05/09 10:28:45;;;;;;;7.87;3.47;;;39.20;30.60;;;;;;10347155;28;20226;-72
2022/05/09 10:34:04;;;;;;;8.63;3.43;;;38.40;31.00;;;;;;10346520;28;20752;-72
2022/05/09 10:39:28;;;;;;;4.63;2.90;;;37.30;31.10;;;;;;10351454;28;20265;-73
2022/05/09 10:44:39;;;;;;;6.27;3.00;;;38.90;30.40;;;;;;10353158;28;20261;-73
2022/05/09 10:49:59;;;;;;;4.53;3.20;;;39.10;28.50;;;;;;10328455;28;20217;-72
2022/05/09 10:55:12;;;;;;;7.97;3.07;;;37.80;30.10;;;;;;10337901;28;20310;-73
2022/05/09 11:00:20;;;;;;;6.40;2.90;;;37.10;31.90;;;;;;10349852;28;20224;-72
2022/05/09 11:05:23;;;;;;;3.60;2.80;;;36.20;30.90;;;;;;10359057;28;20284;-72
2022/05/09 11:10:37;;;;;;;3.30;2.63;;;36.00;32.20;;;;;;10337302;28;20244;-72
2022/05/09 11:15:43;;;;;;;3.00;2.70;;;35.40;31.60;;;;;;10344909;28;20226;-72
2022/05/09 11:21:27;;;;;;;7.60;3.23;;;34.50;32.60;;;;;;10353299;28;20243;-73
2022/05/09 11:26:46;;;;;;;4.00;3.00;;;34.70;33.30;;;;;;10341331;28;20361;-72
2022/05/09 11:31:53;;;;;;;4.70;3.30;;;34.90;33.40;;;;;;10345344;28;20217;-72
2022/05/09 11:37:02;;;;;;;7.60;3.00;;;36.20;32.10;;;;;;10344465;28;20224;-72
2022/05/09 11:48:15;;;;;;;6.63;3.63;;;30.70;39.50;;;;;;10352962;28;20680;-72
2022/05/09 11:53:22;;;;;;;4.03;3.10;;;28.60;43.50;;;;;;10334716;28;20230;-72
2022/05/09 11:58:25;;;;;;;4.80;3.47;;;27.30;45.00;;;;;;10344886;28;20333;-73
2022/05/09 12:03:44;;;;;;;5.87;3.23;;;26.70;47.00;;;;;;10335768;28;20229;-72
2022/05/09 12:08:47;;;;;;;6.23;3.33;;;25.80;48.50;;;;;;10335008;28;20223;-72
2022/05/09 12:13:53;;;;;;;4.70;3.60;;;25.90;48.70;;;;;;10342843;28;20222;-71
2022/05/09 12:19:00;;;;;;;5.13;3.10;;;25.90;48.10;;;;;;10364052;28;20213;-72
2022/05/09 12:24:19;;;;;;;3.73;3.37;;;25.70;47.50;;;;;;10335050;28;20649;-72
2022/05/09 12:29:19;;;;;;;3.60;3.00;;;25.50;47.50;;;;;;10356031;28;20240;-71
2022/05/09 12:34:49;;;;;;;3.40;2.90;;;25.70;46.30;;;;;;10359713;28;20728;-71
2022/05/09 12:39:53;;;;;;;4.13;2.80;;;25.90;47.80;;;;;;10348786;28;20988;-71
2022/05/09 12:44:57;;;;;;;4.63;3.20;;;26.00;46.70;;;;;;10358718;28;20223;-71
2022/05/09 12:50:03;;;;;;;5.97;3.27;;;26.00;47.30;;;;;;10358681;28;20214;-71
2022/05/09 13:00:30;;;;;;;4.13;3.50;;;25.70;46.20;;;;;;10356613;28;20218;-72
2022/05/09 13:05:38;;;;;;;3.43;3.03;;;25.40;47.40;;;;;;10364645;28;20234;-72
2022/05/09 13:10:49;;;;;;;4.47;2.97;;;25.60;47.30;;;;;;10359274;28;20221;-72
2022/05/09 13:15:51;;;;;;;4.80;2.97;;;25.40;47.90;;;;;;10332703;28;20233;-72
2022/05/09 13:20:58;;;;;;;5.90;2.80;;;25.20;46.10;;;;;;10357725;28;20249;-72
2022/05/09 13:26:03;;;;;;;3.03;2.57;;;25.00;46.60;;;;;;10355319;28;20224;-71
2022/05/09 13:31:03;;;;;;;4.77;2.73;;;25.00;47.00;;;;;;10332940;28;20297;-72
2022/05/09 13:36:07;;;;;;;3.73;3.27;;;25.00;47.10;;;;;;10353049;28;20321;-71
2022/05/09 13:41:20;;;;;;;4.13;2.83;;;25.30;47.20;;;;;;10356571;28;20264;-71
2022/05/09 13:46:27;;;;;;;3.17;2.40;;;25.10;47.00;;;;;;10354116;28;20251;-72
2022/05/09 13:51:34;;;;;;;6.40;3.13;;;25.20;46.40;;;;;;10350955;28;20608;-71
2022/05/09 13:56:37;;;;;;;5.67;2.80;;;25.60;45.60;;;;;;10355748;28;20295;-72
2022/05/09 14:01:44;;;;;;;3.60;2.50;;;26.00;44.40;;;;;;10358714;28;20213;-71
2022/05/09 14:06:46;;;;;;;3.33;2.80;;;26.00;44.60;;;;;;10331612;28;20225;-71
2022/05/09 14:12:03;;;;;;;3.07;2.70;;;25.80;45.80;;;;;;10349550;28;20221;-72
2022/05/09 14:17:08;;;;;;;2.93;2.63;;;25.30;46.20;;;;;;10355393;28;20229;-71
2022/05/09 14:22:14;;;;;;;3.87;2.50;;;25.00;47.00;;;;;;10337955;28;20241;-71
2022/05/09 14:32:49;;;;;;;4.70;2.80;;;25.70;46.40;;;;;;10355121;28;20224;-71
2022/05/09 14:37:53;;;;;;;4.53;2.97;;;26.10;45.70;;;;;;10354903;28;20265;-71
2022/05/09 14:43:04;;;;;;;4.53;2.73;;;26.10;46.20;;;;;;10355709;28;20222;-72
2022/05/09 14:48:12;;;;;;;4.10;2.53;;;25.90;44.40;;;;;;10360175;28;20624;-71
2022/05/09 14:53:18;;;;;;;2.77;2.13;;;25.90;45.70;;;;;;10349436;28;20380;-72
2022/05/09 14:58:28;;;;;;;3.97;2.90;;;26.20;44.90;;;;;;10349563;28;20210;-72
2022/05/09 15:03:33;;;;;;;5.83;3.00;;;26.30;46.00;;;;;;10337517;28;20230;-72
2022/05/09 15:08:34;;;;;;;7.00;2.90;;;25.70;46.00;;;;;;10356271;28;20226;-72
2022/05/09 15:13:35;;;;;;;3.53;2.63;;;25.40;46.60;;;;;;10334221;28;20227;-72
2022/05/09 15:18:36;;;;;;;3.80;2.97;;;25.50;47.10;;;;;;10352836;28;20227;-72
2022/05/09 15:23:37;;;;;;;2.63;2.43;;;25.50;46.60;;;;;;10346527;28;20244;-71
2022/05/09 15:28:38;;;;;;;6.63;3.27;;;25.40;47.10;;;;;;10351929;28;20753;-71
2022/05/09 15:33:39;;;;;;;4.30;2.90;;;25.20;47.90;;;;;;10352385;28;20218;-72
2022/05/09 15:38:39;;;;;;;3.90;2.90;;;25.10;47.50;;;;;;10334021;28;20214;-72
2022/05/09 15:43:54;;;;;;;6.07;2.90;;;25.10;47.00;;;;;;10344112;28;20264;-72
2022/05/09 15:48:56;;;;;;;3.20;2.93;;;24.80;47.30;;;;;;10351305;28;20221;-71
2022/05/09 15:54:02;;;;;;;2.90;2.60;;;24.60;48.50;;;;;;10345858;28;20256;-72
2022/05/09 15:59:05;;;;;;;4.13;2.90;;;24.40;47.90;;;;;;10356975;28;20648;-72
2022/05/09 16:04:06;;;;;;;4.13;2.80;;;24.60;48.60;;;;;;10344456;28;20313;-71
2022/05/09 16:14:28;;;;;;;2.60;2.40;;;25.00;47.10;;;;;;10346521;28;20324;-71
2022/05/09 16:19:36;;;;;;;3.83;2.40;;;25.00;47.10;;;;;;10332566;28;20610;-71
2022/05/09 16:24:41;;;;;;;3.83;2.73;;;24.90;46.90;;;;;;10344322;28;20276;-72
2022/05/09 16:29:42;;;;;;;3.07;2.40;;;24.80;47.50;;;;;;10342016;28;20254;-74
2022/05/09 16:34:45;;;;;;;3.77;2.70;;;24.60;47.90;;;;;;10356133;28;20707;-72
2022/05/09 16:39:48;;;;;;;3.00;2.70;;;24.50;47.60;;;;;;10343445;28;20221;-71
2022/05/09 16:45:16;;;;;;;3.77;2.47;;;24.50;48.20;;;;;;10342798;28;20220;-71
2022/05/09 16:50:23;;;;;;;4.43;2.57;;;24.40;48.20;;;;;;10348075;28;20214;-72
2022/05/09 16:55:26;;;;;;;5.40;2.83;;;24.20;49.00;;;;;;10333106;28;20243;-72
2022/05/09 17:00:28;;;;;;;2.70;2.50;;;24.00;48.80;;;;;;10349810;28;20218;-72
2022/05/09 17:05:29;;;;;;;3.67;2.50;;;23.90;49.00;;;;;;10349387;28;20231;-72
2022/05/09 17:10:30;;;;;;;2.70;2.50;;;23.90;49.10;;;;;;10357602;28;20743;-72
2022/05/09 17:15:35;;;;;;;5.10;2.97;;;23.80;49.20;;;;;;10354320;28;20229;-73
2022/05/09 17:20:38;;;;;;;3.17;2.73;;;23.70;49.50;;;;;;10346162;28;20704;-73
2022/05/09 17:25:45;;;;;;;4.20;2.67;;;23.60;49.50;;;;;;10330250;28;20221;-72
2022/05/09 17:30:47;;;;;;;3.20;2.30;;;23.50;49.20;;;;;;10349009;28;20720;-72
2022/05/09 17:41:22;;;;;;;3.30;2.80;;;23.40;49.30;;;;;;10370018;28;20244;-72
2022/05/09 17:46:39;;;;;;;4.03;2.57;;;23.40;49.50;;;;;;10339378;28;20276;-72
2022/05/09 17:51:40;;;;;;;5.27;2.60;;;23.30;51.20;;;;;;10363902;28;20225;-72
2022/05/09 17:56:43;;;;;;;2.60;2.40;;;23.20;52.50;;;;;;10337866;28;20225;-72
2022/05/09 18:01:52;;;;;;;5.87;2.73;;;23.10;52.90;;;;;;10348025;28;20222;-72
2022/05/09 18:06:53;;;;;;;5.90;2.97;;;22.90;53.20;;;;;;10348876;28;20697;-72
2022/05/09 18:12:00;;;;;;;4.43;3.20;;;22.90;54.40;;;;;;10344417;28;20217;-72
2022/05/09 18:17:07;;;;;;;3.60;2.93;;;22.80;54.90;;;;;;10357122;28;20217;-72
2022/05/09 18:22:07;;;;;;;3.73;2.80;;;22.60;54.90;;;;;;10351550;28;20706;-71
2022/05/09 18:27:08;;;;;;;3.90;3.13;;;22.50;55.60;;;;;;10350238;28;20312;-72
2022/05/09 18:32:09;;;;;;;4.83;3.20;;;22.40;56.00;;;;;;10351385;28;20229;-71
2022/05/09 18:37:37;;;;;;;6.90;3.77;;;22.20;56.40;;;;;;10350383;28;20604;-72
2022/05/09 18:42:41;;;;;;;9.33;3.40;;;22.00;57.30;;;;;;10345429;28;20300;-72
2022/05/09 18:47:44;;;;;;;6.43;3.93;;;21.70;58.10;;;;;;10347311;28;20222;-72
2022/05/09 18:52:49;;;;;;;7.03;3.90;;;21.50;59.50;;;;;;10355955;28;20230;-72
2022/05/09 18:57:54;;;;;;;6.53;3.80;;;21.10;62.40;;;;;;10349172;28;20264;-71
2022/05/09 19:02:55;;;;;;;5.43;3.37;;;20.80;64.60;;;;;;10359971;28;20642;-72
2022/05/09 19:08:21;;;;;;;4.87;3.60;;;20.50;66.00;;;;;;10355110;28;20254;-71
2022/05/09 19:13:22;;;;;;;8.87;4.10;;;20.30;69.50;;;;;;10347297;28;20251;-71
2022/05/09 19:18:24;;;;;;;6.10;3.70;;;20.10;71.10;;;;;;10351961;28;20270;-71
2022/05/09 19:23:24;;;;;;;5.27;3.37;;;19.90;72.70;;;;;;10349661;28;20321;-72
2022/05/09 19:28:30;;;;;;;8.37;4.30;;;19.70;73.10;;;;;;10338357;28;20232;-72
2022/05/09 19:33:31;;;;;;;5.77;4.03;;;19.60;74.30;;;;;;10357925;28;20225;-72
2022/05/09 19:38:32;;;;;;;5.67;4.53;;;19.50;75.60;;;;;;10360764;28;20214;-72
2022/05/09 19:43:33;;;;;;;7.00;4.10;;;19.40;76.40;;;;;;10345175;28;20259;-72
2022/05/09 19:48:34;;;;;;;4.20;3.70;;;19.30;75.40;;;;;;10348091;28;20689;-72
2022/05/09 19:58:55;;;;;;;6.60;5.10;;;19.10;76.60;;;;;;10354048;28;20208;-72
2022/05/09 20:04:00;;;;;;;6.63;4.80;;;19.00;76.40;;;;;;10360653;28;20227;-71
2022/05/09 20:09:00;;;;;;;6.43;4.20;;;18.90;77.90;;;;;;10354587;28;20311;-70
2022/05/09 20:14:01;;;;;;;6.97;4.73;;;18.90;77.60;;;;;;10330365;28;20721;-71
2022/05/09 20:19:01;;;;;;;7.03;3.90;;;18.90;77.80;;;;;;10341439;28;20221;-71
2022/05/09 20:24:06;;;;;;;5.20;3.73;;;18.90;77.80;;;;;;10345218;28;20214;-71
2022/05/09 20:34:31;;;;;;;9.10;4.17;;;18.90;76.30;;;;;;10355395;28;20233;-71
2022/05/09 20:39:32;;;;;;;7.23;4.83;;;18.80;78.60;;;;;;10359602;28;20244;-70
2022/05/09 20:44:33;;;;;;;5.10;4.60;;;18.60;80.80;;;;;;10349463;28;20247;-72
2022/05/09 20:49:34;;;;;;;5.70;5.10;;;18.50;82.20;;;;;;10343963;28;20221;-73
2022/05/09 20:54:35;;;;;;;6.27;4.20;;;18.40;83.70;;;;;;10359029;28;20668;-72
2022/05/09 20:59:35;;;;;;;6.27;3.77;;;18.30;83.60;;;;;;10359239;28;20750;-72
2022/05/09 21:04:37;;;;;;;5.07;4.57;;;18.20;81.50;;;;;;10352041;28;20287;-72
2022/05/09 21:09:39;;;;;;;6.07;4.00;;;18.40;79.60;;;;;;10339979;28;20220;-72
2022/05/09 21:14:40;;;;;;;4.60;4.00;;;18.40;78.80;;;;;;10353727;28;20830;-70
2022/05/09 21:19:41;;;;;;;10.23;4.73;;;18.40;80.40;;;;;;10358539;28;20311;-74
2022/05/09 21:24:43;;;;;;;5.47;3.97;;;18.30;81.50;;;;;;10341164;28;20231;-71
2022/05/09 21:29:43;;;;;;;6.23;4.77;;;18.20;84.60;;;;;;10351611;28;20225;-71
2022/05/09 21:34:44;;;;;;;4.93;3.63;;;18.00;83.20;;;;;;10365716;28;20227;-70
2022/05/09 21:45:08;;;;;;;6.00;5.00;;;17.90;85.90;;;;;;10353375;28;20259;-72
2022/05/09 21:50:10;;;;;;;8.17;4.80;;;17.80;87.10;;;;;;10340256;28;20192;-72
2022/05/09 21:55:13;;;;;;;5.20;4.70;;;17.70;89.70;;;;;;10338289;28;20296;-72
2022/05/09 22:00:28;;;;;;;5.83;4.40;;;17.60;90.90;;;;;;10353362;28;20271;-72
2022/05/09 22:05:29;;;;;;;5.37;4.50;;;17.50;90.70;;;;;;10333151;28;20702;-72
2022/05/09 22:10:30;;;;;;;7.13;5.13;;;17.40;91.00;;;;;;10360883;28;20212;-70
2022/05/09 22:15:31;;;;;;;6.50;5.03;;;17.30;92.10;;;;;;10341839;28;20659;-71
2022/05/09 22:20:47;;;;;;;6.20;5.60;;;17.20;93.60;;;;;;10355442;28;20302;-70
2022/05/09 22:25:54;;;;;;;5.77;4.90;;;17.10;94.90;;;;;;10356050;28;20238;-70
2022/05/09 22:30:56;;;;;;;5.70;5.20;;;17.10;96.00;;;;;;10339001;28;20292;-70
2022/05/09 22:35:57;;;;;;;6.20;5.53;;;17.00;97.70;;;;;;10356869;28;20698;-72
2022/05/09 22:40:58;;;;;;;5.90;5.30;;;16.90;99.90;;;;;;10338435;28;20279;-72
2022/05/09 22:45:59;;;;;;;7.37;5.87;;;16.70;99.90;;;;;;10356933;28;20228;-71
2022/05/09 22:50:59;;;;;;;5.83;5.27;;;16.70;99.90;;;;;;10347833;28;20228;-70
2022/05/09 22:56:00;;;;;;;11.63;5.20;;;16.70;99.90;;;;;;10344120;28;20258;-72
2022/05/09 23:01:01;;;;;;;5.93;4.93;;;16.80;99.90;;;;;;10349277;28;20223;-72
2022/05/09 23:06:02;;;;;;;7.13;5.70;;;16.80;99.90;;;;;;10361112;28;20227;-71
2022/05/09 23:11:03;;;;;;;5.77;4.97;;;16.70;99.90;;;;;;10355099;28;20714;-71
2022/05/09 23:16:04;;;;;;;6.03;5.37;;;16.60;99.90;;;;;;10355533;28;20224;-72
2022/05/09 23:21:05;;;;;;;6.93;5.70;;;16.50;99.90;;;;;;10350450;28;20221;-71
2022/05/09 23:26:06;;;;;;;5.27;4.77;;;16.30;99.90;;;;;;10345405;28;20215;-70
2022/05/09 23:31:08;;;;;;;7.33;5.63;;;16.10;99.90;;;;;;10351453;28;20224;-72
2022/05/09 23:36:13;;;;;;;9.57;5.50;;;16.00;99.90;;;;;;10337815;28;20224;-71
2022/05/09 23:41:23;;;;;;;5.80;5.20;;;15.90;99.90;;;;;;10346824;28;20219;-71
2022/05/09 23:46:27;;;;;;;7.13;6.13;;;15.80;99.90;;;;;;10346489;28;20693;-71
2022/05/09 23:51:28;;;;;;;8.37;5.80;;;15.70;99.90;;;;;;10354599;28;20230;-70
2022/05/09 23:56:28;;;;;;;5.90;5.37;;;15.60;99.90;;;;;;10331465;28;20237;-71
